Map

Track Data

SID SEASON NUMBER BASIN SUBBASIN NAME ISO_TIME NATURE LAT LON WMO_WIND WMO_PRES WMO_AGENCY TRACK_TYPE DIST2LAND LANDFALL IFLAG USA_AGENCY USA_ATCF_ID USA_LAT USA_LON USA_RECORD USA_STATUS USA_WIND USA_PRES USA_SSHS USA_R34_NE USA_R34_SE USA_R34_SW USA_R34_NW USA_R50_NE USA_R50_SE USA_R50_SW USA_R50_NW USA_R64_NE USA_R64_SE USA_R64_SW USA_R64_NW USA_POCI USA_ROCI USA_RMW USA_EYE TOKYO_LAT TOKYO_LON TOKYO_GRADE TOKYO_WIND TOKYO_PRES TOKYO_R50_DIR TOKYO_R50_LONG TOKYO_R50_SHORT TOKYO_R30_DIR TOKYO_R30_LONG TOKYO_R30_SHORT TOKYO_LAND CMA_LAT CMA_LON CMA_CAT CMA_WIND CMA_PRES HKO_LAT HKO_LON HKO_CAT HKO_WIND HKO_PRES NEWDELHI_LAT NEWDELHI_LON NEWDELHI_GRADE NEWDELHI_WIND NEWDELHI_PRES NEWDELHI_CI NEWDELHI_DP NEWDELHI_POCI REUNION_LAT REUNION_LON REUNION_TYPE REUNION_WIND REUNION_PRES REUNION_TNUM REUNION_CI REUNION_RMW REUNION_R34_NE REUNION_R34_SE REUNION_R34_SW REUNION_R34_NW REUNION_R50_NE REUNION_R50_SE REUNION_R50_SW REUNION_R50_NW REUNION_R64_NE REUNION_R64_SE REUNION_R64_SW REUNION_R64_NW BOM_LAT BOM_LON BOM_TYPE BOM_WIND BOM_PRES BOM_TNUM BOM_CI BOM_RMW BOM_R34_NE BOM_R34_SE BOM_R34_SW BOM_R34_NW BOM_R50_NE BOM_R50_SE BOM_R50_SW BOM_R50_NW BOM_R64_NE BOM_R64_SE BOM_R64_SW BOM_R64_NW BOM_ROCI BOM_POCI BOM_EYE BOM_POS_METHOD BOM_PRES_METHOD NADI_LAT NADI_LON NADI_CAT NADI_WIND NADI_PRES WELLINGTON_LAT WELLINGTON_LON WELLINGTON_WIND WELLINGTON_PRES DS824_LAT DS824_LON DS824_STAGE DS824_WIND DS824_PRES TD9636_LAT TD9636_LON TD9636_STAGE TD9636_WIND TD9636_PRES TD9635_LAT TD9635_LON TD9635_WIND TD9635_PRES TD9635_ROCI NEUMANN_LAT NEUMANN_LON NEUMANN_CLASS NEUMANN_WIND NEUMANN_PRES MLC_LAT MLC_LON MLC_CLASS MLC_WIND MLC_PRES USA_GUST BOM_GUST BOM_GUST_PER REUNION_GUST REUNION_GUST_PER USA_SEAHGT USA_SEARAD_NE USA_SEARAD_SE USA_SEARAD_SW USA_SEARAD_NW STORM_SPEED STORM_DIR
1892160N19089 1892 19 NI BB NOT_NAMED 1892-06-08 00:00:00 TS 19.4000 88.7000 main 229 221 _________O____ -1 19.4000 88.7000 TC 64 1 293
1892160N19089 1892 19 NI BB NOT_NAMED 1892-06-08 03:00:00 TS 19.4267 88.6333 main 221 206 _________PO___ -1 19.4400 88.6000 TC 64 19.4000 88.7000 4 2 300
1892160N19089 1892 19 NI BB NOT_NAMED 1892-06-08 06:00:00 TS 19.4875 88.5400 main 206 191 _________OP___ -1 19.5000 88.5000 TC 64 19.4688 88.6001 4 2 308
1892160N19089 1892 19 NI BB NOT_NAMED 1892-06-08 09:00:00 TS 19.5700 88.4429 main 191 183 _________PP___ -1 19.5925 88.4000 TC 64 19.5400 88.5000 4 2 314
1892160N19089 1892 19 NI BB NOT_NAMED 1892-06-08 12:00:00 TS 19.6581 88.3500 main 183 175 _________OP___ -1 19.7000 88.3000 TC 64 19.6163 88.4000 4 3 315
1892160N19089 1892 19 NI BB NOT_NAMED 1892-06-08 15:00:00 TS 19.7500 88.2500 main 168 160 _________PO___ -1 19.8000 88.2000 TC 64 19.7000 88.3000 4 3 315
1892160N19089 1892 19 NI BB NOT_NAMED 1892-06-08 18:00:00 TS 19.8464 88.1500 main 160 145 _________OP___ -1 19.9000 88.1000 TC 64 19.7928 88.2000 4 3 316
1892160N19089 1892 19 NI BB NOT_NAMED 1892-06-08 21:00:00 TS 19.9462 88.0500 main 145 130 _________PP___ -1 20.0000 88.0000 TC 64 19.8925 88.1000 4 3 317
1892160N19089 1892 19 NI BB NOT_NAMED 1892-06-09 00:00:00 TS 20.0480 87.9500 main 130 115 _________OP___ -1 20.1000 87.9000 TC 64 19.9959 88.0000 4 3 317
1892160N19089 1892 19 NI BB NOT_NAMED 1892-06-09 03:00:00 TS 20.1500 87.8500 main 100 100 _________PO___ -1 20.2000 87.8000 TC 64 20.1000 87.9000 4 3 317
1892160N19089 1892 19 NI BB NOT_NAMED 1892-06-09 06:00:00 TS 20.2336 87.7660 main 100 85 _________OP___ -1 20.3000 87.7000 TC 64 20.1673 87.8320 4 2 317
1892160N19089 1892 19 NI BB NOT_NAMED 1892-06-09 09:00:00 TS 20.3048 87.6945 main 85 70 _________PP___ -1 20.3699 87.6298 TC 64 20.2396 87.7591 4 3 317
1892160N19089 1892 19 NI BB NOT_NAMED 1892-06-09 12:00:00 TS 20.4211 87.5784 main 70 43 _________OP___ -1 20.5000 87.5000 TC 64 20.3422 87.6567 4 5 317
1892160N19089 1892 19 NI BB NOT_NAMED 1892-06-09 15:00:00 TS 20.6350 87.3651 main 43 15 _________PO___ -1 20.7701 87.2301 TC 55 20.5000 87.5000 4 7 317
1892160N19089 1892 19 NI BB NOT_NAMED 1892-06-09 18:00:00 TS 20.9316 87.0731 main 15 0 _________OP___ -1 21.1000 86.9000 TC 47 20.7632 87.2462 4 8 317
1892160N19089 1892 19 NI BB NOT_NAMED 1892-06-09 21:00:00 TS 21.2465 86.7619 main 0 0 _________PP___ -1 21.4150 86.5850 TC 38 21.0780 86.9388 4 8 317
1892160N19089 1892 19 NI BB NOT_NAMED 1892-06-10 00:00:00 TS 21.5519 86.4559 main 0 0 _________OP___ -1 21.7000 86.3000 TC 30 21.4038 86.6118 4 8 317
1892160N19089 1892 19 NI BB NOT_NAMED 1892-06-10 03:00:00 TS 21.8112 86.1962 main 0 0 _________PO___ -1 21.9224 86.0923 TC 30 21.7000 86.3000 1 6 316
1892160N19089 1892 19 NI BB NOT_NAMED 1892-06-10 06:00:00 TS 22.0115 85.9724 main 0 0 _________OP___ -1 22.1000 85.9000 TC 30 21.9229 86.0449 1 6 311
1892160N19089 1892 19 NI BB NOT_NAMED 1892-06-10 09:00:00 TS 22.1874 85.7273 main 0 0 _________PP___ -1 22.2651 85.6425 TC 30 22.1098 85.8120 1 5 306
1892160N19089 1892 19 NI BB NOT_NAMED 1892-06-10 12:00:00 TS 22.3334 85.4991 main 0 0 _________OP___ -1 22.4000 85.4000 TC 30 22.2667 85.5982 1 5 305
1892160N19089 1892 19 NI BB NOT_NAMED 1892-06-10 15:00:00 TS 22.4537 85.3212 main 0 0 _________PO___ -1 22.5074 85.2424 TC 30 22.4000 85.4000 1 4 307
1892160N19089 1892 19 NI BB NOT_NAMED 1892-06-10 18:00:00 TS 22.5542 85.1853 main 0 0 _________OP___ -1 22.6000 85.1000 TC 30 22.5085 85.2707 1 3 308
1892160N19089 1892 19 NI BB NOT_NAMED 1892-06-10 21:00:00 TS 22.6454 85.0530 main 0 0 _________PP___ -1 22.6922 84.9598 TC 30 22.5985 85.1462 1 4 301
1892160N19089 1892 19 NI BB NOT_NAMED 1892-06-11 00:00:00 TS 22.7447 84.8368 main 0 0 _________OP___ -1 22.8000 84.7000 TC 30 22.6894 84.9736 1 6 292
1892160N19089 1892 19 NI BB NOT_NAMED 1892-06-11 03:00:00 TS 22.8676 84.4512 main 0 0 _________PO___ -1 22.9352 84.2025 TC 30 22.8000 84.7000 1 9 288
1892160N19089 1892 19 NI BB NOT_NAMED 1892-06-11 06:00:00 TS 23.0215 83.9049 main 0 0 _________OP___ -1 23.1000 83.6000 TC 30 22.9430 84.2097 1 11 287
1892160N19089 1892 19 NI BB NOT_NAMED 1892-06-11 09:00:00 TS 23.1964 83.3142 main 0 0 _________PP___ -1 23.2852 83.0051 TC 30 23.1076 83.6234 1 11 290
1892160N19089 1892 19 NI BB NOT_NAMED 1892-06-11 12:00:00 TS 23.3965 82.7626 main 0 0 _________OP___ -1 23.5000 82.5000 TC 30 23.2931 83.0253 1 10 296
1892160N19089 1892 19 NI BB NOT_NAMED 1892-06-11 15:00:00 TS 23.6211 82.3524 main 0 0 _________PO___ -1 23.7421 82.2047 TC 30 23.5000 82.5000 1 8 307
1892160N19089 1892 19 NI BB NOT_NAMED 1892-06-11 18:00:00 TS 23.8739 82.0737 main 0 0 _________OP___ -1 24.0000 82.0000 TC 30 23.7477 82.1473 1 7 316
1892160N19089 1892 19 NI BB NOT_NAMED 1892-06-11 21:00:00 TS 24.1432 81.8074 main 0 0 _________PP___ -1 24.2725 81.7351 TC 30 24.0138 81.8798 1 7 319
1892160N19089 1892 19 NI BB NOT_NAMED 1892-06-12 00:00:00 TS 24.3865 81.5862 main 0 0 _________OP___ -1 24.5000 81.5000 TC 30 24.2731 81.6724 1 5 319
1892160N19089 1892 19 NI BB NOT_NAMED 1892-06-12 03:00:00 TS 24.5575 81.4174 main 0 0 _________PO___ -1 24.6149 81.3348 TC 30 24.5000 81.5000 1 4 314
1892160N19089 1892 19 NI BB NOT_NAMED 1892-06-12 06:00:00 TS 24.6804 81.2543 main 0 0 _________OP___ -1 24.7000 81.2000 TC 30 24.6608 81.3086 1 4 312
1892160N19089 1892 19 NI BB NOT_NAMED 1892-06-12 09:00:00 TS 24.8187 81.0947 main 0 0 _________PP___ -1 24.8500 81.0425 TC 30 24.7873 81.1470 1 4 314
1892160N19089 1892 19 NI BB NOT_NAMED 1892-06-12 12:00:00 TS 24.9476 80.9559 main 0 0 _________OP___ -1 25.0000 80.9000 TC 30 24.8952 81.0119 1 3 316
1892160N19089 1892 19 NI BB NOT_NAMED 1892-06-12 15:00:00 TS 25.0500 80.8425 main 0 0 _________PO___ -1 25.1000 80.7850 TC 30 25.0000 80.9000 1 3 319
1892160N19089 1892 19 NI BB NOT_NAMED 1892-06-12 18:00:00 TS 25.1509 80.7615 main 0 0 _________OP___ -1 25.2000 80.7000 TC 30 25.1141 80.8077 1 3 330
1892160N19089 1892 19 NI BB NOT_NAMED 1892-06-12 21:00:00 TS 25.2775 80.6952 main 0 0 _________PP___ -1 25.3375 80.6425 TC 30 25.2376 80.7303 1 3 339
1892160N19089 1892 19 NI BB NOT_NAMED 1892-06-13 00:00:00 TS 25.4115 80.6418 main 0 0 _________OP___ -1 25.5000 80.6000 TC 30 25.3672 80.6627 1 2 338
1892160N19089 1892 19 NI BB NOT_NAMED 1892-06-13 03:00:00 NR 25.5000 80.6000 main 0 __________O___ -1 TC 25.5000 80.6000 1 2 336

About IBTrACS Database

This database is a web-friendly format of International Best Track Archive for Climate Stewardship (IBTrACS), a global best track data archive curated by NOAA dating back to 1842.

Updated: 2021-11-26